Time;durP1;ratioP1;P1;durP2;ratioP2;P2;SDS_P1;SDS_P2;PMS_P1;PMS_P2;Temp;Humidity;BMP_temperature;BMP_pressure;BME280_temperature;BME280_humidity;BME280_pressure;Samples;Min_cycle;Max_cycle;Signal;HPM_P1;HPM_P2
2021/01/22 00:02:07;;;;;;;0.97;0.70;;;;;;;10.10;74.82;94263.84;5036055;28;20422;-85
2021/01/22 00:04:33;;;;;;;1.43;0.73;;;;;;;10.08;74.45;94276.50;5035991;28;20447;-85
2021/01/22 00:06:59;;;;;;;1.23;0.60;;;;;;;10.04;75.10;94265.50;5036089;28;20426;-85
2021/01/22 00:09:26;;;;;;;1.50;1.20;;;;;;;10.05;75.47;94262.22;5035966;28;20447;-85
2021/01/22 00:11:52;;;;;;;1.37;1.00;;;;;;;9.91;76.03;94228.38;5035257;28;20944;-84
2021/01/22 00:14:18;;;;;;;5.70;1.40;;;;;;;9.87;76.59;94220.75;5036063;28;20542;-84
2021/01/22 00:16:46;;;;;;;4.13;1.17;;;;;;;9.86;76.42;94211.28;5042234;28;20518;-86
2021/01/22 00:19:12;;;;;;;3.40;1.20;;;;;;;9.76;77.18;94221.50;5060054;28;20439;-84
2021/01/22 00:21:38;;;;;;;2.13;1.13;;;;;;;9.72;77.40;94232.00;5059712;28;20509;-86
2021/01/22 00:24:06;;;;;;;1.70;0.90;;;;;;;9.71;78.20;94235.31;5053890;28;20497;-87
2021/01/22 00:26:32;;;;;;;5.60;1.80;;;;;;;9.61;79.09;94219.97;5036319;28;20461;-87
2021/01/22 00:28:58;;;;;;;1.13;0.83;;;;;;;9.57;79.53;94211.66;5035561;28;20809;-87
2021/01/22 00:31:25;;;;;;;1.03;0.77;;;;;;;9.47;79.64;94210.38;5035793;28;20557;-87
2021/01/22 00:33:52;;;;;;;1.37;0.80;;;;;;;9.41;80.21;94202.63;5035514;28;20538;-86
2021/01/22 00:36:18;;;;;;;1.60;0.77;;;;;;;9.35;80.28;94188.84;5035259;28;20501;-87
2021/01/22 00:38:45;;;;;;;1.13;0.97;;;;;;;9.23;80.48;94188.13;5035483;28;20456;-84
2021/01/22 00:41:11;;;;;;;0.77;0.77;;;;;;;9.25;80.52;94185.53;5035244;28;20444;-85
2021/01/22 00:43:38;;;;;;;3.53;0.80;;;;;;;9.21;80.31;94188.00;5035612;28;20447;-84
2021/01/22 00:46:04;;;;;;;5.03;1.73;;;;;;;9.18;80.72;94175.03;5036361;28;20996;-85
2021/01/22 00:48:30;;;;;;;1.10;0.70;;;;;;;9.14;80.78;94173.50;5035322;28;21012;-85
2021/01/22 00:50:58;;;;;;;1.40;1.00;;;;;;;9.06;81.34;94172.31;5035523;28;20987;-85
2021/01/22 00:53:24;;;;;;;1.20;0.77;;;;;;;9.02;81.76;94166.72;5035505;28;20418;-85
2021/01/22 00:55:51;;;;;;;7.20;3.13;;;;;;;9.03;81.62;94168.09;5034439;28;20516;-85
2021/01/22 00:58:17;;;;;;;1.00;0.90;;;;;;;8.90;82.10;94166.66;5036001;28;20417;-85
2021/01/22 01:00:43;;;;;;;1.57;0.80;;;;;;;8.89;82.44;94153.81;5035863;28;20539;-85
2021/01/22 01:03:10;;;;;;;1.40;0.60;;;;;;;8.85;82.23;94153.56;5035590;28;20435;-85
2021/01/22 01:05:36;;;;;;;1.30;0.60;;;;;;;8.82;82.49;94143.97;5035411;28;20475;-85
2021/01/22 01:08:04;;;;;;;1.13;0.90;;;;;;;8.80;81.89;94143.88;5035011;28;20421;-86
2021/01/22 01:10:30;;;;;;;1.20;0.60;;;;;;;8.76;82.18;94144.34;5034793;28;20525;-87
2021/01/22 01:12:56;;;;;;;3.43;1.03;;;;;;;8.79;81.60;94142.47;5034446;28;20428;-87
2021/01/22 01:15:23;;;;;;;0.80;0.50;;;;;;;8.76;81.97;94147.03;5034628;28;20517;-87
2021/01/22 01:17:49;;;;;;;3.30;0.63;;;;;;;8.75;81.65;94147.59;5053636;28;20398;-87
2021/01/22 01:20:16;;;;;;;0.80;0.60;;;;;;;8.77;81.29;94148.41;5059077;28;20414;-87
2021/01/22 01:22:42;;;;;;;0.80;0.60;;;;;;;8.80;80.78;94149.94;5058850;28;20402;-86
2021/01/22 01:25:11;;;;;;;0.60;0.60;;;;;;;8.78;80.85;94136.38;5056375;28;20479;-85
2021/01/22 01:27:37;;;;;;;0.60;0.40;;;;;;;8.73;81.00;94131.34;5034785;28;20421;-84
2021/01/22 01:30:04;;;;;;;1.63;0.60;;;;;;;8.78;80.65;94127.59;5034458;28;20455;-84
2021/01/22 01:32:30;;;;;;;0.80;0.57;;;;;;;8.73;80.92;94137.44;5035067;28;20410;-85
2021/01/22 01:34:57;;;;;;;0.57;0.53;;;;;;;8.73;80.78;94134.03;5034747;28;20435;-85
2021/01/22 01:37:23;;;;;;;0.60;0.40;;;;;;;8.88;80.19;94152.41;5034292;28;20447;-84
2021/01/22 01:39:49;;;;;;;0.80;0.50;;;;;;;8.88;80.35;94144.34;5033708;28;21061;-85
2021/01/22 01:42:17;;;;;;;0.60;0.40;;;;;;;8.91;80.02;94151.25;5034166;28;20496;-87
2021/01/22 01:44:43;;;;;;;0.80;0.50;;;;;;;8.96;80.00;94150.91;5034063;28;20414;-87
2021/01/22 01:47:09;;;;;;;2.03;0.70;;;;;;;9.01;79.96;94141.09;5034264;28;20435;-87
2021/01/22 01:49:36;;;;;;;1.10;0.70;;;;;;;9.04;79.60;94139.91;5034458;28;20402;-87
2021/01/22 01:52:03;;;;;;;0.93;0.50;;;;;;;9.10;79.35;94151.03;5034405;28;20410;-87
2021/01/22 01:54:29;;;;;;;0.70;0.70;;;;;;;9.15;79.47;94160.72;5033768;28;20443;-87
2021/01/22 01:56:56;;;;;;;0.90;0.60;;;;;;;9.10;79.36;94161.78;5034820;28;20455;-87
2021/01/22 01:59:24;;;;;;;0.70;0.57;;;;;;;9.13;78.82;94152.56;5034412;28;20872;-87
2021/01/22 02:01:51;;;;;;;1.30;0.63;;;;;;;9.20;78.63;94148.94;5034393;28;20822;-87
2021/01/22 02:04:18;;;;;;;0.63;0.63;;;;;;;9.17;78.63;94166.25;5034451;28;20432;-87
2021/01/22 02:06:44;;;;;;;0.90;0.60;;;;;;;9.19;77.98;94158.28;5034357;28;20469;-87
2021/01/22 02:09:11;;;;;;;0.70;0.43;;;;;;;9.15;77.79;94161.44;5034224;28;20423;-87
2021/01/22 02:11:38;;;;;;;1.77;0.70;;;;;;;9.18;78.26;94162.25;5034048;28;20449;-87
2021/01/22 02:14:05;;;;;;;0.60;0.50;;;;;;;9.25;77.67;94153.25;5033934;28;20911;-87
2021/01/22 02:16:33;;;;;;;2.00;0.60;;;;;;;9.24;77.54;94151.16;5034140;28;20421;-86
2021/01/22 02:19:05;;;;;;;0.90;0.53;;;;;;;9.19;77.74;94152.91;5034259;28;20432;-86
2021/01/22 02:21:33;;;;;;;1.37;0.80;;;;;;;9.22;77.63;94157.13;5034153;28;20520;-86
2021/01/22 02:24:05;;;;;;;2.10;0.90;;;;;;;9.20;76.74;94154.31;5034163;28;20486;-86
2021/01/22 02:26:50;;;;;;;1.20;0.70;;;;;;;9.24;77.09;94151.84;5035190;28;20469;-86
2021/01/22 02:29:16;;;;;;;1.17;0.70;;;;;;;9.22;76.86;94148.34;5057929;28;20397;-86
2021/01/22 02:31:45;;;;;;;1.03;0.70;;;;;;;9.21;77.05;94147.63;5057262;28;20456;-86
2021/01/22 02:34:15;;;;;;;2.50;0.47;;;;;;;9.22;76.66;94142.97;5057324;28;20427;-86
2021/01/22 02:36:45;;;;;;;3.47;1.00;;;;;;;9.20;77.12;94148.94;5057206;28;20492;-86
2021/01/22 02:39:14;;;;;;;0.93;0.67;;;;;;;9.21;76.76;94153.00;5042447;28;20446;-87
2021/01/22 02:41:41;;;;;;;0.87;0.73;;;;;;;9.21;76.86;94144.94;5036245;28;20538;-87
2021/01/22 02:44:10;;;;;;;2.10;0.73;;;;;;;9.23;76.90;94147.06;5034403;28;20459;-87
2021/01/22 02:46:38;;;;;;;2.50;0.73;;;;;;;9.23;76.28;94141.69;5033773;28;20946;-86
2021/01/22 02:49:04;;;;;;;3.27;0.90;;;;;;;9.17;76.65;94142.03;5034221;28;20418;-86
2021/01/22 02:51:31;;;;;;;3.63;1.07;;;;;;;9.15;76.82;94139.91;5035644;28;20433;-86
2021/01/22 02:53:57;;;;;;;6.20;0.90;;;;;;;9.13;76.69;94139.81;5040644;28;20446;-86
2021/01/22 02:56:34;;;;;;;1.50;0.80;;;;;;;9.13;76.97;94147.16;5045508;28;20422;-86
2021/01/22 02:59:11;;;;;;;2.50;1.33;;;;;;;9.10;76.97;94151.03;5037833;28;20556;-86
2021/01/22 03:02:01;;;;;;;1.63;1.13;;;;;;;9.06;77.08;94148.81;5037732;28;20429;-87
2021/01/22 03:04:28;;;;;;;2.10;0.60;;;;;;;9.07;76.88;94144.13;5037219;28;20902;-86
2021/01/22 03:06:57;;;;;;;3.03;0.90;;;;;;;9.00;77.09;94129.63;5037566;28;20596;-86
2021/01/22 03:09:26;;;;;;;1.47;0.70;;;;;;;8.94;77.70;94133.94;5038693;28;20463;-85
2021/01/22 03:11:55;;;;;;;4.03;1.20;;;;;;;8.94;77.34;94133.94;5038034;28;20426;-84
2021/01/22 03:14:24;;;;;;;3.53;0.90;;;;;;;8.88;77.40;94133.59;5037514;28;20563;-85
2021/01/22 03:16:51;;;;;;;1.57;0.70;;;;;;;8.84;77.46;94130.66;5050319;28;20470;-84
2021/01/22 03:19:18;;;;;;;1.67;0.80;;;;;;;8.79;77.74;94132.41;5038354;28;20427;-85
2021/01/22 03:21:44;;;;;;;2.53;1.10;;;;;;;8.75;77.81;94142.22;5036790;28;20517;-85
2021/01/22 03:24:10;;;;;;;2.30;1.10;;;;;;;8.68;78.25;94140.47;5037057;28;20782;-84
2021/01/22 03:26:37;;;;;;;2.70;1.13;;;;;;;8.65;78.16;94142.31;5036889;28;20843;-86
2021/01/22 03:29:03;;;;;;;2.30;0.80;;;;;;;8.67;77.47;94149.81;5036868;28;20422;-87
2021/01/22 03:31:31;;;;;;;3.03;2.10;;;;;;;8.67;77.92;94134.38;5037135;28;20509;-87
2021/01/22 03:33:57;;;;;;;2.47;1.03;;;;;;;8.67;77.59;94147.13;5036581;28;20422;-87
2021/01/22 03:36:24;;;;;;;4.00;1.40;;;;;;;8.61;77.48;94142.75;5037276;28;20451;-86
2021/01/22 03:38:50;;;;;;;5.87;1.47;;;;;;;8.60;77.69;94138.69;5036577;28;20488;-87
2021/01/22 03:41:17;;;;;;;2.87;1.10;;;;;;;8.59;77.33;94137.28;5037098;28;20843;-87
2021/01/22 03:43:43;;;;;;;4.40;0.90;;;;;;;8.56;77.41;94133.06;5036759;28;20451;-84
2021/01/22 03:46:09;;;;;;;4.07;1.03;;;;;;;8.49;77.71;94131.28;5036783;28;20486;-85
2021/01/22 03:48:37;;;;;;;2.97;1.07;;;;;;;8.57;77.35;94123.72;5036637;28;20459;-85
2021/01/22 03:51:03;;;;;;;2.43;1.23;;;;;;;8.56;77.50;94135.75;5036437;28;20453;-85
2021/01/22 03:53:30;;;;;;;3.37;1.20;;;;;;;8.48;77.64;94131.88;5036742;28;20452;-85
2021/01/22 03:55:56;;;;;;;4.30;0.97;;;;;;;8.45;77.39;94120.31;5036609;28;20410;-85
2021/01/22 03:58:22;;;;;;;3.43;1.93;;;;;;;8.50;77.53;94110.50;5037043;28;20778;-84
2021/01/22 04:00:49;;;;;;;3.43;1.10;;;;;;;8.44;77.66;94102.78;5036683;28;20968;-85
2021/01/22 04:03:15;;;;;;;2.93;1.37;;;;;;;8.47;77.30;94101.59;5036225;28;20410;-85
2021/01/22 04:05:42;;;;;;;3.00;1.20;;;;;;;8.48;76.74;94089.59;5036858;28;20583;-85
2021/01/22 04:08:09;;;;;;;3.10;1.10;;;;;;;8.50;76.67;94108.50;5035897;28;20417;-85
2021/01/22 04:10:35;;;;;;;4.43;1.40;;;;;;;8.52;76.00;94099.88;5035628;28;20976;-85
2021/01/22 04:13:01;;;;;;;4.73;1.57;;;;;;;8.47;76.62;94101.59;5035680;28;20391;-85
2021/01/22 04:15:28;;;;;;;4.93;1.30;;;;;;;8.44;76.73;94094.00;5035795;28;20430;-84
2021/01/22 04:17:54;;;;;;;6.33;1.40;;;;;;;8.44;76.79;94094.00;5036212;28;20443;-86
2021/01/22 04:20:23;;;;;;;2.43;1.20;;;;;;;8.39;76.63;94092.38;5036604;28;20835;-87
2021/01/22 04:22:51;;;;;;;6.70;1.40;;;;;;;8.35;76.35;94090.13;5036686;28;20842;-86
2021/01/22 04:25:19;;;;;;;3.17;1.10;;;;;;;8.44;76.20;94092.03;5046044;28;20446;-86
2021/01/22 04:27:45;;;;;;;5.47;1.93;;;;;;;8.45;76.17;94087.34;5060003;28;20447;-86
2021/01/22 04:30:12;;;;;;;3.53;1.40;;;;;;;8.37;76.48;94087.56;5059841;28;20455;-86
2021/01/22 04:32:40;;;;;;;2.57;1.27;;;;;;;8.39;76.21;94085.00;5059561;28;20421;-86
2021/01/22 04:35:10;;;;;;;1.93;1.33;;;;;;;8.43;75.51;94079.88;5040998;28;20406;-87
2021/01/22 04:37:37;;;;;;;2.70;1.20;;;;;;;8.51;74.98;94069.59;5036355;28;20434;-86
2021/01/22 04:40:06;;;;;;;4.63;1.23;;;;;;;8.59;74.61;94070.06;5035545;28;20459;-87
2021/01/22 04:42:32;;;;;;;2.43;1.10;;;;;;;8.64;74.59;94062.97;5035451;28;20481;-87
2021/01/22 04:44:59;;;;;;;6.00;1.70;;;;;;;8.72;73.66;94070.78;5035338;28;20470;-85
2021/01/22 04:47:26;;;;;;;2.50;1.10;;;;;;;8.73;73.34;94056.78;5035510;28;20534;-87
2021/01/22 04:49:53;;;;;;;8.73;1.20;;;;;;;8.78;73.37;94063.78;5034530;28;20517;-87
2021/01/22 04:52:21;;;;;;;1.93;1.10;;;;;;;8.77;73.72;94056.31;5035416;28;20930;-88
2021/01/22 04:54:48;;;;;;;6.07;1.10;;;;;;;8.70;73.81;94046.47;5034056;28;20462;-87
2021/01/22 04:57:17;;;;;;;4.20;1.03;;;;;;;8.77;73.47;94053.63;5035742;28;20498;-88
2021/01/22 04:59:48;;;;;;;2.37;1.33;;;;;;;8.83;73.50;94045.91;5036250;28;21041;-88
2021/01/22 05:02:15;;;;;;;9.03;1.20;;;;;;;8.82;73.64;94039.81;5035831;28;20417;-85
2021/01/22 05:04:41;;;;;;;12.97;1.40;;;;;;;8.82;73.79;94042.50;5036489;28;20804;-85
2021/01/22 05:07:08;;;;;;;2.93;0.77;;;;;;;8.88;73.38;94034.09;5035839;28;20483;-85
2021/01/22 05:09:34;;;;;;;4.90;1.00;;;;;;;8.85;73.64;94029.88;5035643;28;20493;-85
2021/01/22 05:12:01;;;;;;;3.03;0.90;;;;;;;8.81;74.22;94021.56;5036593;28;20480;-85
2021/01/22 05:14:28;;;;;;;1.53;0.80;;;;;;;8.83;73.86;94021.72;5035974;28;20422;-85
2021/01/22 05:17:03;;;;;;;1.87;0.70;;;;;;;8.85;74.29;94030.59;5036796;28;20443;-85
2021/01/22 05:19:30;;;;;;;2.43;0.67;;;;;;;8.87;74.63;94027.28;5046138;28;20513;-84
2021/01/22 05:21:57;;;;;;;3.73;0.80;;;;;;;8.88;74.41;94021.34;5035103;28;20458;-84
2021/01/22 05:24:24;;;;;;;0.90;0.70;;;;;;;8.87;74.63;94019.22;5035430;28;20480;-87
2021/01/22 05:27:02;;;;;;;3.53;0.77;;;;;;;8.85;75.27;94016.44;5035059;28;20495;-86
2021/01/22 05:29:30;;;;;;;1.90;0.60;;;;;;;8.82;75.06;94004.16;5035540;28;20439;-86
2021/01/22 05:31:56;;;;;;;3.50;0.67;;;;;;;8.84;75.12;94007.66;5035422;28;20489;-84
2021/01/22 05:34:23;;;;;;;2.50;0.60;;;;;;;8.87;75.00;94006.50;5035193;28;20427;-83
2021/01/22 05:36:50;;;;;;;1.70;0.40;;;;;;;8.87;75.02;94011.88;5036017;28;20442;-87
2021/01/22 05:39:21;;;;;;;2.00;0.53;;;;;;;8.94;75.25;94013.63;5035787;28;20501;-87
2021/01/22 05:41:52;;;;;;;3.63;0.77;;;;;;;8.86;75.21;94005.09;5035609;28;20434;-86
2021/01/22 05:44:23;;;;;;;0.60;0.50;;;;;;;8.91;75.06;94014.81;5035304;28;20461;-86
2021/01/22 05:47:04;;;;;;;0.50;0.47;;;;;;;8.91;75.46;94004.03;5035580;28;20508;-87
2021/01/22 05:49:31;;;;;;;4.83;0.60;;;;;;;8.89;75.07;93992.47;5034895;28;20946;-86
2021/01/22 05:51:57;;;;;;;1.80;0.60;;;;;;;8.91;75.21;94001.34;5038742;28;20497;-86
2021/01/22 05:54:37;;;;;;;1.80;0.60;;;;;;;8.89;75.29;93993.19;5036624;28;20449;-87
2021/01/22 05:57:04;;;;;;;0.77;0.40;;;;;;;8.90;75.67;94007.31;5035611;28;20489;-86
2021/01/22 05:59:31;;;;;;;1.00;0.47;;;;;;;8.87;75.77;94019.94;5035221;28;20422;-86
2021/01/22 06:01:57;;;;;;;5.17;0.57;;;;;;;8.90;75.54;94018.06;5035423;28;20552;-86
2021/01/22 06:04:25;;;;;;;1.30;0.80;;;;;;;8.85;75.79;94013.75;5033542;28;20512;-87
2021/01/22 06:06:51;;;;;;;2.20;0.63;;;;;;;8.90;75.52;94015.38;5034061;28;20554;-85
2021/01/22 06:09:34;;;;;;;2.20;0.70;;;;;;;8.83;76.04;94016.34;5035217;28;20493;-85
2021/01/22 06:12:02;;;;;;;0.80;0.60;;;;;;;8.83;75.83;94002.88;5034327;28;20461;-86
2021/01/22 06:14:34;;;;;;;1.20;0.70;;;;;;;8.82;75.83;94007.56;5035195;28;20471;-86
2021/01/22 06:17:06;;;;;;;2.03;1.00;;;;;;;8.91;75.33;93989.88;5035946;28;20878;-86
2021/01/22 06:19:39;;;;;;;1.00;0.43;;;;;;;8.88;75.79;93996.44;5035480;28;20383;-86
2021/01/22 06:22:14;;;;;;;2.40;0.80;;;;;;;8.88;75.77;93988.38;5035135;28;20888;-86
2021/01/22 06:24:41;;;;;;;2.43;0.70;;;;;;;8.85;75.55;93995.63;5035975;28;20427;-87
2021/01/22 06:27:08;;;;;;;2.10;0.50;;;;;;;8.84;75.58;93988.84;5035931;28;20479;-85
2021/01/22 06:29:38;;;;;;;1.10;0.67;;;;;;;8.92;75.30;93992.00;5036123;28;20432;-86
2021/01/22 06:32:07;;;;;;;1.60;0.93;;;;;;;8.98;75.24;93997.72;5046643;28;20428;-86
2021/01/22 06:34:37;;;;;;;1.80;0.50;;;;;;;9.01;74.65;93987.78;5060895;28;20446;-86
2021/01/22 06:37:04;;;;;;;1.10;0.63;;;;;;;8.99;74.86;93985.66;5061879;28;20410;-87
2021/01/22 06:39:32;;;;;;;4.23;1.37;;;;;;;8.96;75.23;93999.56;5056185;28;20431;-85
2021/01/22 06:42:01;;;;;;;0.60;0.40;;;;;;;8.97;74.66;93996.31;5038910;28;20902;-85
2021/01/22 06:44:28;;;;;;;1.10;0.60;;;;;;;8.93;74.82;93990.69;5039079;28;20439;-86
2021/01/22 06:46:55;;;;;;;1.73;0.90;;;;;;;8.91;75.05;93997.97;5039939;28;20554;-88
2021/01/22 06:49:32;;;;;;;1.97;0.80;;;;;;;8.89;75.34;93995.88;5040904;28;20422;-90
2021/01/22 06:52:14;;;;;;;3.57;0.73;;;;;;;8.89;75.35;94001.25;5040143;28;20406;-86
2021/01/22 06:55:03;;;;;;;1.70;0.73;;;;;;;8.78;75.65;93998.53;5032958;28;21021;-85
2021/01/22 06:57:30;;;;;;;1.90;0.50;;;;;;;8.84;75.35;94004.97;5039428;28;20505;-87
2021/01/22 06:59:57;;;;;;;2.87;0.50;;;;;;;8.84;75.26;93996.91;5038985;28;20426;-86
2021/01/22 07:02:41;;;;;;;4.13;0.87;;;;;;;8.80;75.49;93990.63;5038830;28;20530;-86
2021/01/22 07:05:43;;;;;;;2.70;0.80;;;;;;;8.76;75.51;93993.78;5038278;28;20752;-87
2021/01/22 07:08:11;;;;;;;7.53;1.17;;;;;;;8.76;75.24;93996.47;5038615;28;20455;-86
2021/01/22 07:11:02;;;;;;;2.30;0.80;;;;;;;8.77;75.11;93999.84;5038427;28;20463;-87
2021/01/22 07:13:39;;;;;;;1.80;0.80;;;;;;;8.83;74.73;94006.28;5039069;28;20442;-87
2021/01/22 07:16:08;;;;;;;2.60;0.70;;;;;;;8.81;75.23;94010.81;5038461;28;20413;-87
2021/01/22 07:18:42;;;;;;;3.17;0.50;;;;;;;8.87;74.70;94000.41;5038915;28;20445;-86
2021/01/22 07:21:25;;;;;;;2.63;0.80;;;;;;;9.06;73.80;94011.63;5038293;28;20478;-87
2021/01/22 07:23:55;;;;;;;4.67;0.90;;;;;;;9.27;72.90;94008.06;5050960;28;20420;-86
2021/01/22 07:26:22;;;;;;;1.47;0.63;;;;;;;9.43;72.36;93992.81;5055944;28;20472;-86
2021/01/22 07:28:50;;;;;;;6.63;1.10;;;;;;;9.65;71.30;94007.47;5040669;28;20411;-87
2021/01/22 07:31:49;;;;;;;2.47;1.00;;;;;;;9.83;70.90;94015.84;5040492;28;20423;-86
2021/01/22 07:34:41;;;;;;;1.63;0.53;;;;;;;10.11;69.29;94003.19;5024717;28;20452;-87
2021/01/22 07:37:09;;;;;;;2.10;0.83;;;;;;;10.19;69.25;94000.94;5018918;28;20486;-88
2021/01/22 07:39:36;;;;;;;2.70;0.80;;;;;;;10.32;68.08;93997.56;5018731;28;20471;-87
2021/01/22 07:42:05;;;;;;;1.30;0.73;;;;;;;10.44;67.56;93990.09;5018763;28;20440;-88
2021/01/22 07:44:31;;;;;;;1.87;0.80;;;;;;;10.43;67.39;93999.47;5019281;28;20551;-88
2021/01/22 07:46:57;;;;;;;2.40;0.83;;;;;;;10.55;67.20;94005.50;5019492;28;20487;-88
2021/01/22 07:49:24;;;;;;;1.13;0.80;;;;;;;10.44;67.04;94006.28;5020281;28;20511;-86
2021/01/22 07:51:50;;;;;;;1.20;0.60;;;;;;;10.47;67.62;94015.88;5019501;28;20801;-86
2021/01/22 07:54:17;;;;;;;2.53;1.33;;;;;;;10.43;67.32;93999.47;5034546;28;20403;-87
2021/01/22 07:56:45;;;;;;;1.80;1.30;;;;;;;10.32;67.41;94002.25;5023873;28;20899;-87
2021/01/22 07:59:32;;;;;;;2.00;0.50;;;;;;;10.22;68.53;94010.53;5021046;28;20411;-88
2021/01/22 08:02:11;;;;;;;2.03;0.87;;;;;;;10.21;68.13;93992.97;5020386;28;21099;-89
2021/01/22 08:04:38;;;;;;;2.47;0.60;;;;;;;10.25;68.64;94011.31;5020453;28;20438;-88
2021/01/22 08:07:04;;;;;;;4.43;0.80;;;;;;;10.13;69.22;94009.41;5018287;28;20567;-88
2021/01/22 08:09:31;;;;;;;3.43;0.80;;;;;;;10.08;68.85;94010.47;5019827;28;20429;-88
2021/01/22 08:12:08;;;;;;;2.00;0.97;;;;;;;10.10;69.10;94010.56;5019253;28;20434;-89
2021/01/22 08:14:35;;;;;;;6.53;1.30;;;;;;;10.16;69.27;93994.75;5036887;28;20493;-89
2021/01/22 08:17:04;;;;;;;1.53;1.13;;;;;;;10.11;69.17;93992.41;5038616;28;20418;-87
2021/01/22 08:19:32;;;;;;;2.50;0.60;;;;;;;10.09;69.91;93998.38;5037693;28;20404;-87
2021/01/22 08:22:00;;;;;;;4.00;0.60;;;;;;;10.19;69.98;93998.94;5038476;28;20422;-89
2021/01/22 08:24:27;;;;;;;1.90;0.60;;;;;;;10.21;69.29;94003.75;5039171;28;20451;-88
2021/01/22 08:27:01;;;;;;;2.37;0.87;;;;;;;10.32;69.75;93999.56;5037297;28;20472;-88
2021/01/22 08:29:30;;;;;;;3.20;0.67;;;;;;;10.34;69.58;94011.16;5040204;28;20466;-88
2021/01/22 08:31:57;;;;;;;1.17;0.63;;;;;;;10.37;69.70;94006.59;5041532;28;20467;-89
2021/01/22 08:34:24;;;;;;;2.77;0.90;;;;;;;10.45;68.79;93999.59;5041056;28;20421;-87
2021/01/22 08:36:52;;;;;;;1.13;0.73;;;;;;;10.46;69.60;94000.97;5040494;28;20520;-88
2021/01/22 08:39:19;;;;;;;1.57;0.70;;;;;;;10.60;68.96;93999.03;5037265;28;20426;-87
2021/01/22 08:41:46;;;;;;;5.27;1.03;;;;;;;10.58;68.65;93990.13;5037334;28;20479;-88
2021/01/22 08:44:12;;;;;;;2.53;1.00;;;;;;;10.61;68.27;93984.25;5036851;28;20973;-87
2021/01/22 08:46:51;;;;;;;4.53;1.50;;;;;;;10.69;67.53;93983.94;5038197;28;20545;-87
2021/01/22 08:49:18;;;;;;;12.27;1.20;;;;;;;10.77;68.06;93989.03;5036988;28;20410;-85
2021/01/22 08:51:44;;;;;;;5.73;2.40;;;;;;;10.81;67.18;94003.41;5038050;28;20458;-83
2021/01/22 08:54:13;;;;;;;2.87;1.00;;;;;;;10.94;67.08;93985.84;5041712;28;20484;-84
2021/01/22 08:56:39;;;;;;;8.43;1.57;;;;;;;10.87;67.25;93997.66;5039789;28;20963;-83
2021/01/22 08:59:07;;;;;;;3.57;0.90;;;;;;;10.90;66.84;94007.25;5040250;28;20414;-83
2021/01/22 09:01:59;;;;;;;3.17;0.90;;;;;;;10.87;66.83;93989.56;5038726;28;20442;-85
2021/01/22 09:04:27;;;;;;;4.20;1.17;;;;;;;11.01;65.82;93998.34;5037747;28;20414;-87
2021/01/22 09:06:56;;;;;;;2.37;0.87;;;;;;;11.06;65.95;94002.63;5037918;28;20829;-86
2021/01/22 09:09:50;;;;;;;12.37;1.03;;;;;;;11.05;65.59;93996.53;5037461;28;20466;-89
2021/01/22 09:12:25;;;;;;;24.90;1.80;;;;;;;10.97;66.08;93998.13;5036663;28;21001;-87
2021/01/22 09:14:53;;;;;;;12.27;2.03;;;;;;;10.97;65.96;93996.13;5038290;28;20969;-87
2021/01/22 09:17:28;;;;;;;12.20;1.60;;;;;;;10.90;66.17;94001.84;5038328;28;20921;-89
2021/01/22 09:20:01;;;;;;;13.10;1.07;;;;;;;10.95;66.57;94014.22;5037726;28;20438;-87
2021/01/22 09:22:30;;;;;;;9.43;1.50;;;;;;;10.92;66.55;94007.31;5037122;28;20399;-86
2021/01/22 09:24:57;;;;;;;1.10;0.90;;;;;;;10.93;66.49;94011.44;5037189;28;20410;-88
2021/01/22 09:27:23;;;;;;;9.50;1.27;;;;;;;10.97;66.21;94015.03;5037919;28;20556;-85
2021/01/22 09:29:50;;;;;;;14.63;2.10;;;;;;;10.93;66.21;94006.03;5038667;28;20442;-84
2021/01/22 09:32:16;;;;;;;6.83;0.90;;;;;;;11.06;65.93;94008.00;5036584;28;20564;-87
2021/01/22 09:34:44;;;;;;;3.03;0.80;;;;;;;11.20;65.68;93998.63;5036138;28;20546;-86
2021/01/22 09:37:10;;;;;;;9.73;1.20;;;;;;;11.26;65.77;93992.81;5037493;28;20431;-85
2021/01/22 09:39:37;;;;;;;2.77;1.00;;;;;;;11.30;65.34;93998.41;5037153;28;20470;-85
2021/01/22 09:42:04;;;;;;;4.83;1.13;;;;;;;11.39;64.55;94005.59;5036386;28;20534;-87
2021/01/22 09:44:30;;;;;;;11.57;1.80;;;;;;;11.48;64.41;94012.78;5038287;28;20515;-87
2021/01/22 09:46:57;;;;;;;3.87;1.33;;;;;;;11.49;64.05;94008.06;5039369;28;20495;-85
2021/01/22 09:49:23;;;;;;;10.03;1.40;;;;;;;11.52;64.77;94010.28;5039220;28;20448;-86
2021/01/22 09:51:50;;;;;;;8.47;1.60;;;;;;;11.72;64.10;94013.22;5036142;28;20470;-86
2021/01/22 09:54:17;;;;;;;7.57;1.20;;;;;;;11.79;63.55;94028.44;5035822;28;20435;-84
2021/01/22 09:56:44;;;;;;;9.83;2.57;;;;;;;11.99;63.58;94034.09;5036828;28;20530;-89
2021/01/22 09:59:10;;;;;;;8.00;2.27;;;;;;;12.04;63.08;94024.84;5037459;28;20517;-91
2021/01/22 10:01:37;;;;;;;5.30;0.70;;;;;;;12.07;62.35;94029.75;5037534;28;20540;-89
2021/01/22 10:04:05;;;;;;;6.50;1.47;;;;;;;12.09;62.82;94021.72;5037155;28;20997;-87
2021/01/22 10:06:32;;;;;;;4.00;1.07;;;;;;;12.10;62.50;94022.41;5040712;28;20517;-87
2021/01/22 10:08:59;;;;;;;2.30;0.97;;;;;;;12.22;62.14;94018.25;5042842;28;20425;-88
2021/01/22 10:11:26;;;;;;;2.83;0.90;;;;;;;12.25;61.87;94024.44;5041453;28;20475;-86
2021/01/22 10:13:56;;;;;;;5.60;1.17;;;;;;;12.32;61.69;94018.00;5040902;28;20516;-86
2021/01/22 10:16:24;;;;;;;9.00;1.17;;;;;;;12.43;61.94;94019.16;5040821;28;20525;-90
2021/01/22 10:18:52;;;;;;;11.13;1.60;;;;;;;12.37;61.63;94005.38;5040955;28;20526;-89
2021/01/22 10:21:20;;;;;;;5.80;1.00;;;;;;;12.37;61.57;94010.78;5040148;28;20877;-88
2021/01/22 10:23:47;;;;;;;4.43;1.27;;;;;;;12.39;61.41;94014.28;5041247;28;20439;-91
2021/01/22 10:26:15;;;;;;;5.47;1.30;;;;;;;12.28;61.58;93998.88;5046496;28;20538;-88
2021/01/22 10:28:42;;;;;;;5.43;2.03;;;;;;;12.24;62.10;94002.13;5042847;28;20443;-89
2021/01/22 10:31:08;;;;;;;7.97;1.10;;;;;;;12.23;62.16;93991.91;5039879;28;20555;-88
2021/01/22 10:33:35;;;;;;;7.90;1.30;;;;;;;12.18;62.54;94004.56;5039352;28;20487;-87
2021/01/22 10:36:02;;;;;;;6.10;1.40;;;;;;;12.32;62.30;94004.47;5040930;28;20448;-87
2021/01/22 10:38:29;;;;;;;9.57;1.90;;;;;;;12.27;62.81;94005.63;5039399;28;20431;-86
2021/01/22 10:40:55;;;;;;;7.37;1.03;;;;;;;12.21;62.65;93999.94;5039976;28;20467;-86
2021/01/22 10:43:23;;;;;;;3.40;0.90;;;;;;;12.29;62.49;94006.41;5040541;28;20455;-86
2021/01/22 10:45:51;;;;;;;5.50;1.30;;;;;;;12.41;62.23;94019.06;5038482;28;20560;-86
2021/01/22 10:48:18;;;;;;;10.17;1.77;;;;;;;12.49;62.27;94024.84;5040122;28;20887;-85
2021/01/22 10:50:45;;;;;;;6.87;1.87;;;;;;;12.50;62.01;94010.69;5040303;28;20462;-85
2021/01/22 10:53:11;;;;;;;4.40;1.17;;;;;;;12.61;61.73;94015.25;5049004;28;20409;-87
2021/01/22 10:55:41;;;;;;;4.03;0.80;;;;;;;12.71;60.87;94006.88;5060187;28;20461;-87
2021/01/22 10:58:08;;;;;;;10.87;1.30;;;;;;;12.62;60.96;94010.53;5048053;28;20566;-87
2021/01/22 11:00:35;;;;;;;2.80;1.30;;;;;;;12.79;60.83;94018.72;5039594;28;20966;-87
2021/01/22 11:03:02;;;;;;;3.93;0.77;;;;;;;12.85;60.82;94015.59;5040045;28;20402;-86
2021/01/22 11:05:28;;;;;;;10.77;1.10;;;;;;;12.89;60.62;94013.75;5039109;28;20425;-86
2021/01/22 11:07:54;;;;;;;10.03;1.50;;;;;;;12.95;60.62;93999.06;5040756;28;20418;-84
2021/01/22 11:10:21;;;;;;;3.53;0.90;;;;;;;12.96;60.61;94005.88;5039344;28;20496;-86
2021/01/22 11:12:48;;;;;;;5.90;1.20;;;;;;;13.02;60.77;94008.84;5040370;28;20410;-86
2021/01/22 11:15:15;;;;;;;2.10;0.70;;;;;;;13.10;60.88;94001.06;5039755;28;20989;-82
2021/01/22 11:17:42;;;;;;;9.43;1.10;;;;;;;13.14;60.58;94001.94;5037930;28;20443;-86
2021/01/22 11:20:10;;;;;;;4.00;1.20;;;;;;;13.18;60.35;94009.56;5038667;28;20433;-85
2021/01/22 11:22:37;;;;;;;1.47;0.70;;;;;;;13.18;59.35;93999.41;5038039;28;20853;-85
2021/01/22 11:25:04;;;;;;;4.87;1.20;;;;;;;13.19;59.45;94000.78;5040194;28;20443;-87
2021/01/22 11:27:31;;;;;;;7.53;1.37;;;;;;;13.21;59.21;93992.06;5038257;28;20487;-88
2021/01/22 11:29:58;;;;;;;1.93;0.90;;;;;;;13.09;59.34;94000.41;5038972;28;20462;-87
2021/01/22 11:32:24;;;;;;;1.27;0.73;;;;;;;13.05;59.95;93996.78;5039571;28;20445;-86
2021/01/22 11:34:51;;;;;;;6.97;1.53;;;;;;;13.08;59.84;93992.84;5040186;28;20440;-87
2021/01/22 11:37:18;;;;;;;3.63;1.10;;;;;;;13.09;60.13;93994.28;5039867;28;20940;-88
2021/01/22 11:39:44;;;;;;;8.53;1.33;;;;;;;13.18;59.97;93979.75;5038897;28;20928;-89
2021/01/22 11:42:11;;;;;;;2.83;0.90;;;;;;;13.34;59.81;93977.72;5038920;28;20432;-88
2021/01/22 11:44:37;;;;;;;6.03;0.90;;;;;;;13.39;59.43;93973.84;5040107;28;20935;-85
2021/01/22 11:47:05;;;;;;;7.60;1.40;;;;;;;13.53;58.24;93966.28;5038230;28;20526;-87